sensor_id;sensor_type;location;lat;lon;timestamp;P1;durP1;ratioP1;P2;durP2;ratioP2
6209;SDS011;3138;52.550;13.148;2023-04-24T00:01:00;6.30;;;5.73;;
6209;SDS011;3138;52.550;13.148;2023-04-24T00:03:28;6.30;;;5.70;;
6209;SDS011;3138;52.550;13.148;2023-04-24T00:05:55;14.50;;;6.53;;
6209;SDS011;3138;52.550;13.148;2023-04-24T00:08:24;8.80;;;6.53;;
6209;SDS011;3138;52.550;13.148;2023-04-24T00:10:51;9.80;;;7.30;;
6209;SDS011;3138;52.550;13.148;2023-04-24T00:13:18;7.70;;;6.90;;
6209;SDS011;3138;52.550;13.148;2023-04-24T00:15:45;7.90;;;6.77;;
6209;SDS011;3138;52.550;13.148;2023-04-24T00:18:12;8.00;;;6.93;;
6209;SDS011;3138;52.550;13.148;2023-04-24T00:20:40;6.57;;;5.90;;
6209;SDS011;3138;52.550;13.148;2023-04-24T00:23:08;14.20;;;6.90;;
6209;SDS011;3138;52.550;13.148;2023-04-24T00:25:35;8.77;;;6.97;;
6209;SDS011;3138;52.550;13.148;2023-04-24T00:28:02;9.50;;;7.33;;
6209;SDS011;3138;52.550;13.148;2023-04-24T00:30:29;8.70;;;7.17;;
6209;SDS011;3138;52.550;13.148;2023-04-24T00:32:56;8.73;;;7.03;;
6209;SDS011;3138;52.550;13.148;2023-04-24T00:35:23;9.40;;;7.10;;
6209;SDS011;3138;52.550;13.148;2023-04-24T00:37:51;13.90;;;6.30;;
6209;SDS011;3138;52.550;13.148;2023-04-24T00:40:18;7.20;;;6.50;;
6209;SDS011;3138;52.550;13.148;2023-04-24T00:42:45;9.70;;;6.97;;
6209;SDS011;3138;52.550;13.148;2023-04-24T00:45:12;9.40;;;6.60;;
6209;SDS011;3138;52.550;13.148;2023-04-24T00:47:39;8.17;;;6.13;;
6209;SDS011;3138;52.550;13.148;2023-04-24T00:50:07;6.80;;;6.20;;
6209;SDS011;3138;52.550;13.148;2023-04-24T00:52:36;7.77;;;6.70;;
6209;SDS011;3138;52.550;13.148;2023-04-24T00:55:07;9.30;;;7.00;;
6209;SDS011;3138;52.550;13.148;2023-04-24T00:57:35;7.90;;;7.10;;
6209;SDS011;3138;52.550;13.148;2023-04-24T01:00:03;7.70;;;6.70;;
6209;SDS011;3138;52.550;13.148;2023-04-24T01:02:35;8.57;;;6.67;;
6209;SDS011;3138;52.550;13.148;2023-04-24T01:05:05;7.50;;;6.80;;
6209;SDS011;3138;52.550;13.148;2023-04-24T01:07:33;11.33;;;7.03;;
6209;SDS011;3138;52.550;13.148;2023-04-24T01:10:01;7.77;;;6.60;;
6209;SDS011;3138;52.550;13.148;2023-04-24T01:12:29;7.33;;;6.63;;
6209;SDS011;3138;52.550;13.148;2023-04-24T01:14:56;9.73;;;7.27;;
6209;SDS011;3138;52.550;13.148;2023-04-24T01:17:24;10.10;;;6.33;;
6209;SDS011;3138;52.550;13.148;2023-04-24T01:19:50;10.60;;;6.77;;
6209;SDS011;3138;52.550;13.148;2023-04-24T01:22:20;9.93;;;8.00;;
6209;SDS011;3138;52.550;13.148;2023-04-24T01:24:46;13.10;;;8.13;;
6209;SDS011;3138;52.550;13.148;2023-04-24T01:27:13;9.27;;;8.33;;
6209;SDS011;3138;52.550;13.148;2023-04-24T01:29:40;10.00;;;8.10;;
6209;SDS011;3138;52.550;13.148;2023-04-24T01:32:07;12.90;;;8.87;;
6209;SDS011;3138;52.550;13.148;2023-04-24T01:34:34;9.60;;;8.70;;
6209;SDS011;3138;52.550;13.148;2023-04-24T01:37:01;8.13;;;7.40;;
6209;SDS011;3138;52.550;13.148;2023-04-24T01:39:29;13.27;;;8.40;;
6209;SDS011;3138;52.550;13.148;2023-04-24T01:41:56;11.03;;;7.60;;
6209;SDS011;3138;52.550;13.148;2023-04-24T01:44:23;7.93;;;7.10;;
6209;SDS011;3138;52.550;13.148;2023-04-24T01:46:51;8.63;;;7.73;;
6209;SDS011;3138;52.550;13.148;2023-04-24T01:49:18;8.53;;;7.57;;
6209;SDS011;3138;52.550;13.148;2023-04-24T01:51:45;8.00;;;7.30;;
6209;SDS011;3138;52.550;13.148;2023-04-24T01:54:12;9.00;;;7.70;;
6209;SDS011;3138;52.550;13.148;2023-04-24T01:56:41;10.23;;;7.87;;
6209;SDS011;3138;52.550;13.148;2023-04-24T01:59:09;8.50;;;7.70;;
6209;SDS011;3138;52.550;13.148;2023-04-24T02:01:37;9.70;;;8.77;;
6209;SDS011;3138;52.550;13.148;2023-04-24T02:04:05;8.80;;;7.90;;
6209;SDS011;3138;52.550;13.148;2023-04-24T02:06:33;9.27;;;8.33;;
6209;SDS011;3138;52.550;13.148;2023-04-24T02:09:00;8.60;;;7.50;;
6209;SDS011;3138;52.550;13.148;2023-04-24T02:11:27;12.47;;;8.27;;
6209;SDS011;3138;52.550;13.148;2023-04-24T02:13:56;8.83;;;7.93;;
6209;SDS011;3138;52.550;13.148;2023-04-24T02:16:22;11.57;;;8.63;;
6209;SDS011;3138;52.550;13.148;2023-04-24T02:18:49;10.07;;;7.30;;
6209;SDS011;3138;52.550;13.148;2023-04-24T02:21:16;13.30;;;9.80;;
6209;SDS011;3138;52.550;13.148;2023-04-24T02:23:43;10.10;;;9.10;;
6209;SDS011;3138;52.550;13.148;2023-04-24T02:26:10;9.37;;;8.37;;
6209;SDS011;3138;52.550;13.148;2023-04-24T02:28:37;10.40;;;9.40;;
6209;SDS011;3138;52.550;13.148;2023-04-24T02:31:05;9.57;;;8.67;;
6209;SDS011;3138;52.550;13.148;2023-04-24T02:33:32;9.40;;;8.40;;
6209;SDS011;3138;52.550;13.148;2023-04-24T02:35:59;9.80;;;8.80;;
6209;SDS011;3138;52.550;13.148;2023-04-24T02:38:26;13.37;;;9.27;;
6209;SDS011;3138;52.550;13.148;2023-04-24T02:40:52;13.10;;;10.03;;
6209;SDS011;3138;52.550;13.148;2023-04-24T02:43:19;8.83;;;7.93;;
6209;SDS011;3138;52.550;13.148;2023-04-24T02:45:46;12.03;;;9.10;;
6209;SDS011;3138;52.550;13.148;2023-04-24T02:48:15;10.03;;;8.97;;
6209;SDS011;3138;52.550;13.148;2023-04-24T02:50:42;12.43;;;8.57;;
6209;SDS011;3138;52.550;13.148;2023-04-24T02:53:08;14.50;;;8.97;;
6209;SDS011;3138;52.550;13.148;2023-04-24T02:55:35;10.30;;;8.67;;
6209;SDS011;3138;52.550;13.148;2023-04-24T02:58:02;10.47;;;8.90;;
6209;SDS011;3138;52.550;13.148;2023-04-24T03:00:29;12.57;;;8.97;;
6209;SDS011;3138;52.550;13.148;2023-04-24T03:02:56;10.40;;;9.37;;
6209;SDS011;3138;52.550;13.148;2023-04-24T03:05:24;17.67;;;8.90;;
6209;SDS011;3138;52.550;13.148;2023-04-24T03:07:52;11.87;;;9.57;;
6209;SDS011;3138;52.550;13.148;2023-04-24T03:10:20;16.03;;;9.13;;
6209;SDS011;3138;52.550;13.148;2023-04-24T03:12:48;11.83;;;9.50;;
6209;SDS011;3138;52.550;13.148;2023-04-24T03:15:15;20.43;;;9.17;;
6209;SDS011;3138;52.550;13.148;2023-04-24T03:17:42;10.10;;;9.07;;
6209;SDS011;3138;52.550;13.148;2023-04-24T03:20:09;11.37;;;10.17;;
6209;SDS011;3138;52.550;13.148;2023-04-24T03:22:37;12.60;;;9.50;;
6209;SDS011;3138;52.550;13.148;2023-04-24T03:25:04;10.40;;;9.37;;
6209;SDS011;3138;52.550;13.148;2023-04-24T03:27:33;11.70;;;9.60;;
6209;SDS011;3138;52.550;13.148;2023-04-24T03:30:00;12.00;;;9.40;;
6209;SDS011;3138;52.550;13.148;2023-04-24T03:32:27;12.53;;;8.40;;
6209;SDS011;3138;52.550;13.148;2023-04-24T03:34:54;11.00;;;9.90;;
6209;SDS011;3138;52.550;13.148;2023-04-24T03:37:20;11.47;;;9.10;;
6209;SDS011;3138;52.550;13.148;2023-04-24T03:39:49;12.37;;;9.50;;
6209;SDS011;3138;52.550;13.148;2023-04-24T03:42:15;10.57;;;8.83;;
6209;SDS011;3138;52.550;13.148;2023-04-24T03:44:42;10.50;;;9.07;;
6209;SDS011;3138;52.550;13.148;2023-04-24T03:47:09;11.60;;;9.03;;
6209;SDS011;3138;52.550;13.148;2023-04-24T03:49:36;13.23;;;8.60;;
6209;SDS011;3138;52.550;13.148;2023-04-24T03:52:03;9.30;;;8.47;;
6209;SDS011;3138;52.550;13.148;2023-04-24T03:54:30;10.80;;;8.73;;
6209;SDS011;3138;52.550;13.148;2023-04-24T03:56:58;10.03;;;9.03;;
6209;SDS011;3138;52.550;13.148;2023-04-24T03:59:25;14.60;;;9.50;;
6209;SDS011;3138;52.550;13.148;2023-04-24T04:01:51;11.40;;;9.10;;
6209;SDS011;3138;52.550;13.148;2023-04-24T04:04:18;10.60;;;9.50;;
6209;SDS011;3138;52.550;13.148;2023-04-24T04:06:45;12.80;;;8.90;;
6209;SDS011;3138;52.550;13.148;2023-04-24T04:09:12;11.00;;;8.90;;
6209;SDS011;3138;52.550;13.148;2023-04-24T04:11:40;10.67;;;9.27;;
6209;SDS011;3138;52.550;13.148;2023-04-24T04:14:08;8.60;;;7.80;;
6209;SDS011;3138;52.550;13.148;2023-04-24T04:16:35;9.97;;;8.30;;
6209;SDS011;3138;52.550;13.148;2023-04-24T04:19:02;10.30;;;8.83;;
6209;SDS011;3138;52.550;13.148;2023-04-24T04:21:29;10.27;;;8.73;;
6209;SDS011;3138;52.550;13.148;2023-04-24T04:23:57;11.80;;;8.43;;
6209;SDS011;3138;52.550;13.148;2023-04-24T04:26:24;13.33;;;7.77;;
6209;SDS011;3138;52.550;13.148;2023-04-24T04:28:51;15.70;;;7.80;;
6209;SDS011;3138;52.550;13.148;2023-04-24T04:31:19;10.53;;;8.47;;
6209;SDS011;3138;52.550;13.148;2023-04-24T04:33:46;8.00;;;7.23;;
6209;SDS011;3138;52.550;13.148;2023-04-24T04:36:13;11.23;;;8.80;;
6209;SDS011;3138;52.550;13.148;2023-04-24T04:38:42;8.07;;;7.37;;
6209;SDS011;3138;52.550;13.148;2023-04-24T04:41:09;10.27;;;7.40;;
6209;SDS011;3138;52.550;13.148;2023-04-24T04:43:36;9.33;;;7.23;;
6209;SDS011;3138;52.550;13.148;2023-04-24T04:46:05;9.53;;;7.27;;
6209;SDS011;3138;52.550;13.148;2023-04-24T04:48:34;7.77;;;7.00;;
6209;SDS011;3138;52.550;13.148;2023-04-24T04:51:01;6.90;;;6.27;;
6209;SDS011;3138;52.550;13.148;2023-04-24T04:53:28;11.67;;;6.07;;
6209;SDS011;3138;52.550;13.148;2023-04-24T04:55:55;7.40;;;6.70;;
6209;SDS011;3138;52.550;13.148;2023-04-24T04:58:22;6.70;;;6.10;;
6209;SDS011;3138;52.550;13.148;2023-04-24T05:00:49;6.27;;;5.70;;
6209;SDS011;3138;52.550;13.148;2023-04-24T05:03:16;6.20;;;5.60;;
6209;SDS011;3138;52.550;13.148;2023-04-24T05:05:44;6.60;;;5.60;;
6209;SDS011;3138;52.550;13.148;2023-04-24T05:08:11;7.70;;;6.70;;
6209;SDS011;3138;52.550;13.148;2023-04-24T05:10:38;5.13;;;4.63;;
6209;SDS011;3138;52.550;13.148;2023-04-24T05:13:04;5.97;;;5.20;;
6209;SDS011;3138;52.550;13.148;2023-04-24T05:15:31;4.97;;;4.50;;
6209;SDS011;3138;52.550;13.148;2023-04-24T05:17:58;5.27;;;4.77;;
6209;SDS011;3138;52.550;13.148;2023-04-24T05:20:25;5.57;;;4.90;;
6209;SDS011;3138;52.550;13.148;2023-04-24T05:22:53;4.87;;;4.57;;
6209;SDS011;3138;52.550;13.148;2023-04-24T05:25:20;5.07;;;4.57;;
6209;SDS011;3138;52.550;13.148;2023-04-24T05:27:47;5.07;;;4.77;;
6209;SDS011;3138;52.550;13.148;2023-04-24T05:30:14;4.33;;;4.03;;
6209;SDS011;3138;52.550;13.148;2023-04-24T05:32:41;4.40;;;4.00;;
6209;SDS011;3138;52.550;13.148;2023-04-24T05:35:08;10.93;;;4.90;;
6209;SDS011;3138;52.550;13.148;2023-04-24T05:37:35;5.47;;;4.00;;
6209;SDS011;3138;52.550;13.148;2023-04-24T05:40:03;14.03;;;4.10;;
6209;SDS011;3138;52.550;13.148;2023-04-24T05:42:31;11.23;;;3.50;;
6209;SDS011;3138;52.550;13.148;2023-04-24T05:44:58;3.50;;;3.20;;
6209;SDS011;3138;52.550;13.148;2023-04-24T05:47:25;3.07;;;2.87;;
6209;SDS011;3138;52.550;13.148;2023-04-24T05:49:52;2.60;;;2.50;;
6209;SDS011;3138;52.550;13.148;2023-04-24T05:52:19;8.57;;;6.63;;
6209;SDS011;3138;52.550;13.148;2023-04-24T05:54:46;9.30;;;5.17;;
6209;SDS011;3138;52.550;13.148;2023-04-24T05:57:14;3.30;;;2.37;;
6209;SDS011;3138;52.550;13.148;2023-04-24T05:59:40;4.30;;;2.30;;
6209;SDS011;3138;52.550;13.148;2023-04-24T06:02:07;3.30;;;2.83;;
6209;SDS011;3138;52.550;13.148;2023-04-24T06:04:34;2.30;;;2.10;;
6209;SDS011;3138;52.550;13.148;2023-04-24T06:07:01;3.83;;;2.07;;
6209;SDS011;3138;52.550;13.148;2023-04-24T06:09:28;4.03;;;2.43;;
6209;SDS011;3138;52.550;13.148;2023-04-24T06:11:55;7.90;;;2.07;;
6209;SDS011;3138;52.550;13.148;2023-04-24T06:14:23;4.10;;;2.30;;
6209;SDS011;3138;52.550;13.148;2023-04-24T06:16:50;5.07;;;1.37;;
6209;SDS011;3138;52.550;13.148;2023-04-24T06:19:17;4.77;;;2.10;;
6209;SDS011;3138;52.550;13.148;2023-04-24T06:21:44;8.77;;;1.60;;
6209;SDS011;3138;52.550;13.148;2023-04-24T06:24:13;3.50;;;1.90;;
6209;SDS011;3138;52.550;13.148;2023-04-24T06:26:40;2.00;;;1.53;;
6209;SDS011;3138;52.550;13.148;2023-04-24T06:29:07;1.53;;;1.43;;
6209;SDS011;3138;52.550;13.148;2023-04-24T06:31:36;3.03;;;1.10;;
6209;SDS011;3138;52.550;13.148;2023-04-24T06:34:03;2.10;;;1.00;;
6209;SDS011;3138;52.550;13.148;2023-04-24T06:36:30;1.10;;;1.10;;
6209;SDS011;3138;52.550;13.148;2023-04-24T06:38:59;5.40;;;1.33;;
6209;SDS011;3138;52.550;13.148;2023-04-24T06:41:26;1.90;;;1.10;;
6209;SDS011;3138;52.550;13.148;2023-04-24T06:43:53;1.00;;;1.00;;
6209;SDS011;3138;52.550;13.148;2023-04-24T06:46:20;9.40;;;1.20;;
6209;SDS011;3138;52.550;13.148;2023-04-24T06:48:50;1.27;;;1.27;;
6209;SDS011;3138;52.550;13.148;2023-04-24T06:51:17;0.80;;;0.80;;
6209;SDS011;3138;52.550;13.148;2023-04-24T06:53:44;4.33;;;0.70;;
6209;SDS011;3138;52.550;13.148;2023-04-24T06:56:10;1.50;;;1.40;;
6209;SDS011;3138;52.550;13.148;2023-04-24T06:58:37;2.00;;;0.70;;
6209;SDS011;3138;52.550;13.148;2023-04-24T07:01:04;2.17;;;1.20;;
6209;SDS011;3138;52.550;13.148;2023-04-24T07:03:31;1.33;;;1.10;;
6209;SDS011;3138;52.550;13.148;2023-04-24T07:05:59;0.87;;;0.87;;
6209;SDS011;3138;52.550;13.148;2023-04-24T07:08:26;1.10;;;1.00;;
6209;SDS011;3138;52.550;13.148;2023-04-24T07:10:53;1.10;;;1.10;;
6209;SDS011;3138;52.550;13.148;2023-04-24T07:13:21;2.10;;;0.93;;
6209;SDS011;3138;52.550;13.148;2023-04-24T07:15:48;0.80;;;0.80;;
6209;SDS011;3138;52.550;13.148;2023-04-24T07:18:17;1.47;;;0.77;;
6209;SDS011;3138;52.550;13.148;2023-04-24T07:20:44;2.93;;;0.83;;
6209;SDS011;3138;52.550;13.148;2023-04-24T07:23:12;2.10;;;1.00;;
6209;SDS011;3138;52.550;13.148;2023-04-24T07:25:39;2.00;;;1.13;;
6209;SDS011;3138;52.550;13.148;2023-04-24T07:28:06;1.60;;;1.17;;
6209;SDS011;3138;52.550;13.148;2023-04-24T07:30:33;8.67;;;0.93;;
6209;SDS011;3138;52.550;13.148;2023-04-24T07:33:00;3.10;;;1.30;;
6209;SDS011;3138;52.550;13.148;2023-04-24T07:35:27;7.40;;;0.90;;
6209;SDS011;3138;52.550;13.148;2023-04-24T07:37:54;2.20;;;1.10;;
6209;SDS011;3138;52.550;13.148;2023-04-24T07:40:22;1.57;;;0.83;;
6209;SDS011;3138;52.550;13.148;2023-04-24T07:42:49;1.57;;;0.80;;
6209;SDS011;3138;52.550;13.148;2023-04-24T07:45:16;1.07;;;0.80;;
6209;SDS011;3138;52.550;13.148;2023-04-24T07:47:43;3.33;;;1.07;;
6209;SDS011;3138;52.550;13.148;2023-04-24T07:50:10;1.27;;;0.70;;
6209;SDS011;3138;52.550;13.148;2023-04-24T07:52:38;1.63;;;0.70;;
6209;SDS011;3138;52.550;13.148;2023-04-24T07:55:05;0.97;;;0.93;;
6209;SDS011;3138;52.550;13.148;2023-04-24T07:57:34;1.07;;;0.90;;
6209;SDS011;3138;52.550;13.148;2023-04-24T08:00:02;1.03;;;0.70;;
6209;SDS011;3138;52.550;13.148;2023-04-24T08:02:30;0.83;;;0.80;;
6209;SDS011;3138;52.550;13.148;2023-04-24T08:04:57;0.70;;;0.70;;
6209;SDS011;3138;52.550;13.148;2023-04-24T08:07:24;1.03;;;0.70;;
6209;SDS011;3138;52.550;13.148;2023-04-24T08:09:51;0.60;;;0.60;;
6209;SDS011;3138;52.550;13.148;2023-04-24T08:12:18;1.27;;;0.63;;
6209;SDS011;3138;52.550;13.148;2023-04-24T08:14:46;0.90;;;0.90;;
6209;SDS011;3138;52.550;13.148;2023-04-24T08:17:13;0.73;;;0.73;;
6209;SDS011;3138;52.550;13.148;2023-04-24T08:19:40;1.20;;;0.87;;
6209;SDS011;3138;52.550;13.148;2023-04-24T08:22:12;0.93;;;0.67;;
6209;SDS011;3138;52.550;13.148;2023-04-24T08:24:39;0.60;;;0.60;;
6209;SDS011;3138;52.550;13.148;2023-04-24T08:27:06;0.67;;;0.50;;
6209;SDS011;3138;52.550;13.148;2023-04-24T08:29:33;1.13;;;0.63;;
6209;SDS011;3138;52.550;13.148;2023-04-24T08:32:01;0.80;;;0.80;;
6209;SDS011;3138;52.550;13.148;2023-04-24T08:34:28;0.87;;;0.87;;
6209;SDS011;3138;52.550;13.148;2023-04-24T08:36:55;0.60;;;0.60;;
6209;SDS011;3138;52.550;13.148;2023-04-24T08:39:21;1.90;;;0.50;;
6209;SDS011;3138;52.550;13.148;2023-04-24T08:41:48;0.60;;;0.60;;
6209;SDS011;3138;52.550;13.148;2023-04-24T08:44:16;3.27;;;0.80;;
6209;SDS011;3138;52.550;13.148;2023-04-24T08:46:46;1.47;;;0.87;;
6209;SDS011;3138;52.550;13.148;2023-04-24T08:49:16;1.50;;;0.97;;
6209;SDS011;3138;52.550;13.148;2023-04-24T08:51:44;1.63;;;0.87;;
6209;SDS011;3138;52.550;13.148;2023-04-24T08:54:13;0.70;;;0.70;;
6209;SDS011;3138;52.550;13.148;2023-04-24T08:56:40;2.10;;;1.13;;
6209;SDS011;3138;52.550;13.148;2023-04-24T08:59:10;1.90;;;0.93;;
6209;SDS011;3138;52.550;13.148;2023-04-24T09:01:38;2.67;;;1.00;;
6209;SDS011;3138;52.550;13.148;2023-04-24T09:04:07;3.77;;;1.07;;
6209;SDS011;3138;52.550;13.148;2023-04-24T09:06:37;2.67;;;0.63;;
6209;SDS011;3138;52.550;13.148;2023-04-24T09:09:04;4.80;;;0.80;;
6209;SDS011;3138;52.550;13.148;2023-04-24T09:11:31;4.73;;;1.10;;
6209;SDS011;3138;52.550;13.148;2023-04-24T09:13:58;1.47;;;0.70;;
6209;SDS011;3138;52.550;13.148;2023-04-24T09:16:26;3.93;;;1.00;;
6209;SDS011;3138;52.550;13.148;2023-04-24T09:18:54;2.73;;;1.10;;
6209;SDS011;3138;52.550;13.148;2023-04-24T09:21:22;1.87;;;1.17;;
6209;SDS011;3138;52.550;13.148;2023-04-24T09:23:58;1.80;;;0.80;;
6209;SDS011;3138;52.550;13.148;2023-04-24T09:26:28;4.63;;;1.17;;
6209;SDS011;3138;52.550;13.148;2023-04-24T09:28:57;3.30;;;1.13;;
6209;SDS011;3138;52.550;13.148;2023-04-24T09:31:26;0.77;;;0.77;;
6209;SDS011;3138;52.550;13.148;2023-04-24T09:33:54;3.70;;;1.00;;
6209;SDS011;3138;52.550;13.148;2023-04-24T09:36:29;3.10;;;0.70;;
6209;SDS011;3138;52.550;13.148;2023-04-24T09:38:59;2.87;;;0.60;;
6209;SDS011;3138;52.550;13.148;2023-04-24T09:41:27;0.90;;;0.73;;
6209;SDS011;3138;52.550;13.148;2023-04-24T09:43:55;1.33;;;0.73;;
6209;SDS011;3138;52.550;13.148;2023-04-24T09:46:29;3.37;;;0.63;;
6209;SDS011;3138;52.550;13.148;2023-04-24T09:48:58;6.53;;;1.00;;
6209;SDS011;3138;52.550;13.148;2023-04-24T09:51:35;1.07;;;0.80;;
6209;SDS011;3138;52.550;13.148;2023-04-24T09:54:04;1.43;;;1.20;;
6209;SDS011;3138;52.550;13.148;2023-04-24T09:56:39;2.33;;;1.10;;
6209;SDS011;3138;52.550;13.148;2023-04-24T09:59:09;2.73;;;0.80;;
6209;SDS011;3138;52.550;13.148;2023-04-24T10:01:36;1.17;;;0.90;;
6209;SDS011;3138;52.550;13.148;2023-04-24T10:04:06;6.83;;;1.63;;
6209;SDS011;3138;52.550;13.148;2023-04-24T10:06:41;5.63;;;1.07;;
6209;SDS011;3138;52.550;13.148;2023-04-24T10:09:10;1.20;;;0.70;;
6209;SDS011;3138;52.550;13.148;2023-04-24T10:11:39;2.10;;;0.97;;
6209;SDS011;3138;52.550;13.148;2023-04-24T10:14:10;1.77;;;0.73;;
6209;SDS011;3138;52.550;13.148;2023-04-24T10:16:39;1.00;;;0.90;;
6209;SDS011;3138;52.550;13.148;2023-04-24T10:19:06;1.60;;;1.00;;
6209;SDS011;3138;52.550;13.148;2023-04-24T10:21:33;1.33;;;0.80;;
6209;SDS011;3138;52.550;13.148;2023-04-24T10:24:02;0.70;;;0.70;;
6209;SDS011;3138;52.550;13.148;2023-04-24T10:26:33;1.80;;;0.87;;
6209;SDS011;3138;52.550;13.148;2023-04-24T10:29:03;8.03;;;1.00;;
6209;SDS011;3138;52.550;13.148;2023-04-24T10:31:34;2.60;;;0.80;;
6209;SDS011;3138;52.550;13.148;2023-04-24T10:34:02;1.27;;;1.00;;
6209;SDS011;3138;52.550;13.148;2023-04-24T10:36:30;2.30;;;0.73;;
6209;SDS011;3138;52.550;13.148;2023-04-24T10:38:59;2.20;;;0.73;;
6209;SDS011;3138;52.550;13.148;2023-04-24T10:41:28;0.77;;;0.77;;
6209;SDS011;3138;52.550;13.148;2023-04-24T10:44:07;1.23;;;1.00;;
6209;SDS011;3138;52.550;13.148;2023-04-24T10:46:35;0.90;;;0.70;;
6209;SDS011;3138;52.550;13.148;2023-04-24T10:49:03;0.80;;;0.67;;
6209;SDS011;3138;52.550;13.148;2023-04-24T10:51:47;2.23;;;1.00;;
6209;SDS011;3138;52.550;13.148;2023-04-24T10:54:22;1.00;;;0.60;;
6209;SDS011;3138;52.550;13.148;2023-04-24T10:56:50;0.90;;;0.70;;
6209;SDS011;3138;52.550;13.148;2023-04-24T10:59:25;0.70;;;0.70;;
6209;SDS011;3138;52.550;13.148;2023-04-24T11:01:53;6.90;;;0.83;;
6209;SDS011;3138;52.550;13.148;2023-04-24T11:04:28;3.07;;;0.83;;
6209;SDS011;3138;52.550;13.148;2023-04-24T11:06:56;2.23;;;0.87;;
6209;SDS011;3138;52.550;13.148;2023-04-24T11:09:25;1.60;;;0.67;;
6209;SDS011;3138;52.550;13.148;2023-04-24T11:12:02;2.57;;;1.23;;
6209;SDS011;3138;52.550;13.148;2023-04-24T11:14:35;8.03;;;1.27;;
6209;SDS011;3138;52.550;13.148;2023-04-24T11:17:31;2.87;;;0.60;;
6209;SDS011;3138;52.550;13.148;2023-04-24T11:20:02;0.40;;;0.40;;
6209;SDS011;3138;52.550;13.148;2023-04-24T11:22:32;0.67;;;0.67;;
6209;SDS011;3138;52.550;13.148;2023-04-24T11:25:00;0.73;;;0.73;;
6209;SDS011;3138;52.550;13.148;2023-04-24T11:27:29;2.20;;;0.60;;
6209;SDS011;3138;52.550;13.148;2023-04-24T11:30:00;4.10;;;0.70;;
6209;SDS011;3138;52.550;13.148;2023-04-24T11:32:29;1.13;;;0.80;;
6209;SDS011;3138;52.550;13.148;2023-04-24T11:34:57;1.20;;;0.80;;
6209;SDS011;3138;52.550;13.148;2023-04-24T11:37:26;0.83;;;0.50;;
6209;SDS011;3138;52.550;13.148;2023-04-24T11:39:54;3.53;;;0.60;;
6209;SDS011;3138;52.550;13.148;2023-04-24T11:42:24;0.90;;;0.80;;
6209;SDS011;3138;52.550;13.148;2023-04-24T11:44:51;1.17;;;0.90;;
6209;SDS011;3138;52.550;13.148;2023-04-24T11:47:20;2.13;;;0.63;;
6209;SDS011;3138;52.550;13.148;2023-04-24T11:49:54;2.00;;;0.90;;
6209;SDS011;3138;52.550;13.148;2023-04-24T11:52:20;1.10;;;0.87;;
6209;SDS011;3138;52.550;13.148;2023-04-24T11:54:48;1.53;;;0.60;;
6209;SDS011;3138;52.550;13.148;2023-04-24T11:57:16;1.37;;;0.87;;
6209;SDS011;3138;52.550;13.148;2023-04-24T11:59:45;3.83;;;0.70;;
6209;SDS011;3138;52.550;13.148;2023-04-24T12:02:21;2.73;;;0.70;;
6209;SDS011;3138;52.550;13.148;2023-04-24T12:04:48;4.30;;;2.43;;
6209;SDS011;3138;52.550;13.148;2023-04-24T12:07:15;3.27;;;2.97;;
6209;SDS011;3138;52.550;13.148;2023-04-24T12:09:43;5.20;;;1.03;;
6209;SDS011;3138;52.550;13.148;2023-04-24T12:12:11;3.07;;;0.83;;
6209;SDS011;3138;52.550;13.148;2023-04-24T12:14:42;0.70;;;0.70;;
6209;SDS011;3138;52.550;13.148;2023-04-24T12:17:16;0.53;;;0.53;;
6209;SDS011;3138;52.550;13.148;2023-04-24T12:19:48;3.83;;;0.63;;
6209;SDS011;3138;52.550;13.148;2023-04-24T12:22:15;19.50;;;1.23;;
6209;SDS011;3138;52.550;13.148;2023-04-24T12:24:55;9.10;;;1.17;;
6209;SDS011;3138;52.550;13.148;2023-04-24T12:27:27;9.80;;;1.50;;
6209;SDS011;3138;52.550;13.148;2023-04-24T12:29:56;1.17;;;0.93;;
6209;SDS011;3138;52.550;13.148;2023-04-24T12:32:24;21.50;;;1.03;;
6209;SDS011;3138;52.550;13.148;2023-04-24T12:34:52;0.80;;;0.80;;
6209;SDS011;3138;52.550;13.148;2023-04-24T12:37:20;5.33;;;0.90;;
6209;SDS011;3138;52.550;13.148;2023-04-24T12:39:59;1.17;;;0.70;;
6209;SDS011;3138;52.550;13.148;2023-04-24T12:42:27;1.27;;;1.17;;
6209;SDS011;3138;52.550;13.148;2023-04-24T12:44:56;1.83;;;0.93;;
6209;SDS011;3138;52.550;13.148;2023-04-24T12:47:24;3.43;;;1.33;;
6209;SDS011;3138;52.550;13.148;2023-04-24T12:49:53;3.70;;;1.30;;
6209;SDS011;3138;52.550;13.148;2023-04-24T12:52:20;5.70;;;0.87;;
6209;SDS011;3138;52.550;13.148;2023-04-24T12:54:48;1.57;;;0.90;;
6209;SDS011;3138;52.550;13.148;2023-04-24T12:57:16;1.30;;;0.93;;
6209;SDS011;3138;52.550;13.148;2023-04-24T12:59:42;0.60;;;0.60;;
6209;SDS011;3138;52.550;13.148;2023-04-24T13:02:09;7.10;;;1.47;;
6209;SDS011;3138;52.550;13.148;2023-04-24T13:04:37;1.30;;;1.20;;
6209;SDS011;3138;52.550;13.148;2023-04-24T13:07:05;1.50;;;1.40;;
6209;SDS011;3138;52.550;13.148;2023-04-24T13:09:34;3.30;;;1.00;;
6209;SDS011;3138;52.550;13.148;2023-04-24T13:12:01;3.30;;;1.40;;
6209;SDS011;3138;52.550;13.148;2023-04-24T13:14:28;2.10;;;1.33;;
6209;SDS011;3138;52.550;13.148;2023-04-24T13:16:55;3.10;;;1.40;;
6209;SDS011;3138;52.550;13.148;2023-04-24T13:19:23;7.30;;;1.23;;
6209;SDS011;3138;52.550;13.148;2023-04-24T13:21:51;2.33;;;1.20;;
6209;SDS011;3138;52.550;13.148;2023-04-24T13:24:19;1.03;;;1.03;;
6209;SDS011;3138;52.550;13.148;2023-04-24T13:26:46;2.70;;;1.30;;
6209;SDS011;3138;52.550;13.148;2023-04-24T13:29:13;1.40;;;1.13;;
6209;SDS011;3138;52.550;13.148;2023-04-24T13:31:39;1.10;;;1.10;;
6209;SDS011;3138;52.550;13.148;2023-04-24T13:34:06;0.97;;;0.97;;
6209;SDS011;3138;52.550;13.148;2023-04-24T13:36:33;1.20;;;0.80;;
6209;SDS011;3138;52.550;13.148;2023-04-24T13:39:00;1.23;;;1.10;;
6209;SDS011;3138;52.550;13.148;2023-04-24T13:41:30;2.10;;;1.10;;
6209;SDS011;3138;52.550;13.148;2023-04-24T13:43:58;3.30;;;1.07;;
6209;SDS011;3138;52.550;13.148;2023-04-24T13:46:25;1.27;;;1.17;;
6209;SDS011;3138;52.550;13.148;2023-04-24T13:48:52;2.47;;;1.07;;
6209;SDS011;3138;52.550;13.148;2023-04-24T13:51:18;2.23;;;1.13;;
6209;SDS011;3138;52.550;13.148;2023-04-24T13:53:45;1.50;;;1.07;;
6209;SDS011;3138;52.550;13.148;2023-04-24T13:56:12;5.10;;;1.40;;
6209;SDS011;3138;52.550;13.148;2023-04-24T13:58:40;4.10;;;1.00;;
6209;SDS011;3138;52.550;13.148;2023-04-24T14:01:07;6.47;;;2.00;;
6209;SDS011;3138;52.550;13.148;2023-04-24T14:03:34;1.33;;;1.20;;
6209;SDS011;3138;52.550;13.148;2023-04-24T14:06:03;11.30;;;1.20;;
6209;SDS011;3138;52.550;13.148;2023-04-24T14:08:31;8.23;;;1.43;;
6209;SDS011;3138;52.550;13.148;2023-04-24T14:10:58;1.10;;;0.90;;
6209;SDS011;3138;52.550;13.148;2023-04-24T14:13:25;1.03;;;0.77;;
6209;SDS011;3138;52.550;13.148;2023-04-24T14:15:54;2.93;;;1.10;;
6209;SDS011;3138;52.550;13.148;2023-04-24T14:18:20;0.90;;;0.90;;
6209;SDS011;3138;52.550;13.148;2023-04-24T14:20:47;3.13;;;1.10;;
6209;SDS011;3138;52.550;13.148;2023-04-24T14:23:14;0.90;;;0.90;;
6209;SDS011;3138;52.550;13.148;2023-04-24T14:25:41;4.40;;;1.17;;
6209;SDS011;3138;52.550;13.148;2023-04-24T14:28:09;3.40;;;1.17;;
6209;SDS011;3138;52.550;13.148;2023-04-24T14:30:35;1.10;;;1.00;;
6209;SDS011;3138;52.550;13.148;2023-04-24T14:33:06;0.80;;;0.80;;
6209;SDS011;3138;52.550;13.148;2023-04-24T14:35:33;1.33;;;0.90;;
6209;SDS011;3138;52.550;13.148;2023-04-24T14:38:00;1.60;;;0.93;;
6209;SDS011;3138;52.550;13.148;2023-04-24T14:40:27;9.30;;;0.90;;
6209;SDS011;3138;52.550;13.148;2023-04-24T14:42:54;6.23;;;1.27;;
6209;SDS011;3138;52.550;13.148;2023-04-24T14:45:22;1.60;;;0.77;;
6209;SDS011;3138;52.550;13.148;2023-04-24T14:47:49;1.37;;;1.10;;
6209;SDS011;3138;52.550;13.148;2023-04-24T14:50:18;1.30;;;1.00;;
6209;SDS011;3138;52.550;13.148;2023-04-24T14:52:45;2.20;;;0.90;;
6209;SDS011;3138;52.550;13.148;2023-04-24T14:55:12;2.33;;;1.17;;
6209;SDS011;3138;52.550;13.148;2023-04-24T14:57:41;7.00;;;1.50;;
6209;SDS011;3138;52.550;13.148;2023-04-24T15:00:08;1.10;;;1.10;;
6209;SDS011;3138;52.550;13.148;2023-04-24T15:02:36;4.67;;;1.10;;